Search for airport 
image banner adimage banner adimage banner ad
image banner ad

CN46 - The Mcconnell Foundation

Located in Redding, United States

ICAO - CN46, IATA -

Data provided by Airmate  

General information

Coordinates: N40°35'54" W122°19'56"
Elevation is 643 feet MSL.
Magnetic variation is 16° East
View others Airports in California

Operational data

Special qualification required
Current time UTC:
Current local time:
Weather at : KRDD - Redding Muni ( 10 km )
METAR: KRDD 150953Z AUTO 27005KT 10SM CLR 19/08 A2999 RMK AO2 SLP148 T01890078
TAF: KRDD 150532Z 1506/1606 VRB03KT P6SM SKC FM151400 31007KT P6SM SKC
View NOTAMs / SUP AIP / TFR affecting this airport [VIEW]
Communications frequencies: [VIEW]

Runways:

Airport contact information

Address: Redding United States

Satellite view of CN46